Impacts METAR Board
IDs:

KDTW - Detroit Metro/Wayne, MI, US

Updated at: 0300 UTC 16 Aug 2018
Potential Impact None Slight Moderate High
Time 15/15Z 15/16Z 15/17Z 15/18Z 15/19Z 15/20Z 15/21Z 15/22Z 15/23Z 16/00Z 16/01Z 16/02Z 16/03Z
Temp82 84 85 84 84 86 87 86 84 80 79 79 77
Dewpt66 65 66 66 67 65 67 68 68 68 69 66 64
Altim30.01 30.01 30.01 30.02 30.01 30.00 29.99 29.97 29.98 29.98 29.99 30.00 30.01
VIS7 8 7 7 7 7 8 8 8 7 7 7 8
CIG250 250 140 140 140 140 230 220 220 80 200 200 200
CoverOVCBKNOVCOVCOVCOVCOVCOVCOVCOVCOVCOVCBKN
FltCatVFRVFRVFRVFRVFRVFRVFRVFRVFRVFRVFRVFRVFR
WX--------------------------
WDir240230240230210240200210160170180230230
WSpd10 11 11 10 10 10 8 6 8 7 5 7 8
WGst-- -- -- 17 -- -- -- -- -- -- -- -- --
Raw hourly METARs
KDTW 151453Z 24010KT 7SM FEW140 OVC250 28/19 A3001 RMK AO2 SLP158 T02780189 51002
KDTW 151553Z 23011KT 8SM FEW140 BKN250 29/18 A3001 RMK AO2 SLP158 T02890183
KDTW 151653Z 24011KT 7SM FEW050 BKN140 OVC250 29/19 A3001 RMK AO2 SLP157 T02940189
KDTW 151753Z 23010G17KT 7SM SCT045 OVC140 29/19 A3002 RMK AO2 SLP160 T02890189 10300 20222 53001
KDTW 151853Z 21010KT 7SM FEW045 BKN140 OVC230 29/19 A3001 RMK AO2 SLP158 T02890194
KDTW 151953Z 24010KT 7SM FEW045 BKN140 OVC230 30/18 A3000 RMK AO2 SLP153 T03000183
KDTW 152053Z 20008KT 8SM FEW045 SCT140 OVC230 31/19 A2999 RMK AO2 SLP149 T03060194 58010
KDTW 152153Z 21006KT 8SM FEW045 SCT080 OVC220 30/20 A2997 RMK AO2 SLP146 T03000200
KDTW 152253Z 16008KT 8SM FEW050 SCT080 OVC220 29/20 A2998 RMK AO2 SLP147 T02890200
KDTW 152353Z 17007KT 7SM SCT040 BKN080 OVC200 27/20 A2998 RMK AO2 SLP149 T02670200 10306 20267 55001
KDTW 160053Z 18005KT 7SM SCT040 SCT080 OVC200 26/21 A2999 RMK AO2 LTG DSNT N SLP151 T02610206
KDTW 160153Z 23007KT 7SM SCT040 SCT080 OVC200 26/19 A3000 RMK AO2 SLP154 T02610189
KDTW 160253Z 23008KT 8SM FEW040 BKN200 25/18 A3001 RMK AO2 SLP156 T02500178 51008



Page loaded:  03:08 UTC  |   08:08 PM Pacific  |   09:08 PM Mountain  |   10:08 PM Central  |   11:08 PM Eastern

 

ADVISORIES

FORECASTS

FORECASTS

OBSERVATIONS

USER TOOLS

ABOUT US